Time;durP1;ratioP1;P1;durP2;ratioP2;P2;SDS_P1;SDS_P2;PMS_P1;PMS_P2;Temp;Humidity;BMP_temperature;BMP_pressure;BME280_temperature;BME280_humidity;BME280_pressure;Samples;Min_cycle;Max_cycle;Signal;HPM_P1;HPM_P2
2023/08/03 00:01:24;;;;;;;6.30;1.67;;;16.30;99.90;;;;;;5078989;28;20470;-60
2023/08/03 00:03:49;;;;;;;7.82;1.50;;;16.40;99.90;;;;;;5079122;28;20047;-60
2023/08/03 00:06:15;;;;;;;6.28;2.20;;;16.40;99.90;;;;;;5077535;28;20064;-59
2023/08/03 00:08:41;;;;;;;7.65;1.90;;;16.40;99.90;;;;;;5079792;28;20044;-59
2023/08/03 00:11:06;;;;;;;7.78;2.15;;;16.40;99.90;;;;;;5077266;28;20037;-59
2023/08/03 00:13:32;;;;;;;7.03;1.92;;;16.50;99.90;;;;;;5079564;28;20090;-59
2023/08/03 00:15:58;;;;;;;5.80;1.70;;;16.40;99.90;;;;;;5077345;28;20059;-59
2023/08/03 00:18:24;;;;;;;8.13;2.40;;;16.50;99.90;;;;;;5078624;28;20036;-57
2023/08/03 00:20:50;;;;;;;5.60;1.70;;;16.40;99.90;;;;;;5078645;28;20043;-58
2023/08/03 00:23:16;;;;;;;9.13;1.85;;;16.40;99.90;;;;;;5059348;28;20055;-59
2023/08/03 00:25:41;;;;;;;7.47;1.98;;;16.40;99.90;;;;;;5079454;28;20045;-59
2023/08/03 00:28:07;;;;;;;5.85;1.85;;;16.40;99.90;;;;;;5077123;28;20115;-60
2023/08/03 00:30:33;;;;;;;5.55;1.98;;;16.50;99.90;;;;;;5079453;28;20411;-59
2023/08/03 00:32:58;;;;;;;6.35;1.83;;;16.40;99.90;;;;;;5077385;28;20158;-59
2023/08/03 00:35:24;;;;;;;9.05;2.03;;;16.60;99.90;;;;;;5040746;28;1088074;-59
2023/08/03 00:37:51;;;;;;;5.68;1.88;;;16.40;99.90;;;;;;5079053;28;20045;-58
2023/08/03 00:40:17;;;;;;;5.93;2.03;;;16.50;99.90;;;;;;5079033;28;20124;-59
2023/08/03 00:42:43;;;;;;;6.13;2.15;;;16.50;99.90;;;;;;5080251;28;20044;-59
2023/08/03 00:45:11;;;;;;;6.38;1.80;;;16.50;99.90;;;;;;5077969;28;20131;-59
2023/08/03 00:47:37;;;;;;;4.88;1.80;;;16.40;99.90;;;;;;5080061;28;20055;-59
2023/08/03 00:50:02;;;;;;;5.53;1.88;;;16.40;99.90;;;;;;5077959;28;20372;-60
2023/08/03 00:52:28;;;;;;;4.55;1.70;;;16.50;99.90;;;;;;5079460;28;20056;-59
2023/08/03 00:54:54;;;;;;;5.60;1.98;;;16.60;99.90;;;;;;5078845;28;20043;-59
2023/08/03 00:57:19;;;;;;;5.68;1.77;;;16.50;99.90;;;;;;5092092;28;20490;-59
2023/08/03 00:59:45;;;;;;;5.97;1.73;;;16.40;99.90;;;;;;5100233;28;20044;-58
2023/08/03 01:02:11;;;;;;;4.68;1.50;;;16.50;99.90;;;;;;5097984;28;20170;-59
2023/08/03 01:04:36;;;;;;;5.75;1.98;;;16.60;99.90;;;;;;5100299;28;20036;-66
2023/08/03 01:07:02;;;;;;;6.55;1.65;;;16.50;99.90;;;;;;5097438;28;20051;-67
2023/08/03 01:09:28;;;;;;;5.38;2.10;;;16.60;99.90;;;;;;5099676;28;20141;-66
2023/08/03 01:11:54;;;;;;;5.47;2.30;;;16.50;99.90;;;;;;5100303;28;20040;-63
2023/08/03 01:14:20;;;;;;;4.85;1.80;;;16.50;99.90;;;;;;5100709;28;20070;-62
2023/08/03 01:16:46;;;;;;;5.90;1.88;;;16.50;99.90;;;;;;5100038;28;20790;-61
2023/08/03 01:19:13;;;;;;;6.00;1.75;;;16.50;99.90;;;;;;5097384;28;20047;-58
2023/08/03 01:21:40;;;;;;;6.63;1.80;;;16.50;99.90;;;;;;5099517;28;20135;-61
2023/08/03 01:24:06;;;;;;;7.13;2.00;;;16.50;99.90;;;;;;5097460;28;20465;-61
2023/08/03 01:26:32;;;;;;;5.45;1.80;;;16.40;99.90;;;;;;5099299;28;20070;-61
2023/08/03 01:28:58;;;;;;;5.15;1.77;;;16.50;99.90;;;;;;5096958;28;20043;-61
2023/08/03 01:31:24;;;;;;;6.82;1.80;;;16.50;99.90;;;;;;5098598;28;20048;-61
2023/08/03 01:33:49;;;;;;;5.22;1.88;;;16.40;99.90;;;;;;5099040;28;20036;-60
2023/08/03 01:36:15;;;;;;;6.55;1.90;;;16.50;99.90;;;;;;5078544;28;20060;-60
2023/08/03 01:38:41;;;;;;;4.30;1.45;;;16.40;99.90;;;;;;5099626;28;20097;-60
2023/08/03 01:41:07;;;;;;;6.55;1.77;;;16.60;99.90;;;;;;5078697;28;20040;-61
2023/08/03 01:43:33;;;;;;;7.35;1.95;;;16.50;99.90;;;;;;5080570;28;20055;-60
2023/08/03 01:45:58;;;;;;;5.50;1.77;;;16.40;99.90;;;;;;5097044;28;20036;-59
2023/08/03 01:48:24;;;;;;;5.55;1.75;;;16.50;99.90;;;;;;5098345;28;20055;-60
2023/08/03 01:50:50;;;;;;;6.97;1.90;;;16.40;99.90;;;;;;5098340;28;20052;-60
2023/08/03 01:53:17;;;;;;;5.18;1.80;;;16.50;99.90;;;;;;5097322;28;20043;-60
2023/08/03 01:55:45;;;;;;;6.65;2.33;;;16.40;99.90;;;;;;5099123;28;20051;-59
2023/08/03 01:58:12;;;;;;;5.05;2.05;;;16.40;99.90;;;;;;5076276;28;20052;-60
2023/08/03 02:00:38;;;;;;;4.80;2.08;;;16.30;99.90;;;;;;5078494;28;20049;-60
2023/08/03 02:03:03;;;;;;;6.35;1.90;;;16.40;99.90;;;;;;5076602;28;20135;-60
2023/08/03 02:05:29;;;;;;;7.93;2.22;;;16.50;99.90;;;;;;5077711;28;20044;-60
2023/08/03 02:07:55;;;;;;;6.63;2.00;;;16.40;99.90;;;;;;5059003;28;20057;-60
2023/08/03 02:10:23;;;;;;;4.63;1.83;;;16.50;99.90;;;;;;5076989;28;20040;-61
2023/08/03 02:12:49;;;;;;;7.00;2.20;;;16.40;99.90;;;;;;5078528;28;20037;-60
2023/08/03 02:15:15;;;;;;;6.70;2.22;;;16.50;99.90;;;;;;5076135;28;20048;-60
2023/08/03 02:17:42;;;;;;;5.55;1.77;;;16.40;99.90;;;;;;5059941;28;20072;-60
2023/08/03 02:20:09;;;;;;;5.65;2.20;;;16.40;99.90;;;;;;5076186;28;20036;-60
2023/08/03 02:22:35;;;;;;;4.40;1.50;;;16.50;99.90;;;;;;5077646;28;20048;-60
2023/08/03 02:25:01;;;;;;;6.13;1.80;;;16.40;99.90;;;;;;5077247;28;20060;-60
2023/08/03 02:27:27;;;;;;;4.38;1.33;;;16.40;99.90;;;;;;5076200;28;20075;-60
2023/08/03 02:29:52;;;;;;;4.63;1.42;;;16.50;99.90;;;;;;5078455;28;20104;-60
2023/08/03 02:32:19;;;;;;;5.47;1.60;;;16.40;99.90;;;;;;5075838;28;20049;-61
2023/08/03 02:34:45;;;;;;;3.88;1.40;;;16.40;99.90;;;;;;5077961;28;20092;-61
2023/08/03 02:37:11;;;;;;;3.90;1.50;;;16.50;99.90;;;;;;5076034;28;20052;-60
2023/08/03 02:39:36;;;;;;;3.72;1.48;;;16.40;99.90;;;;;;5077590;28;20065;-60
2023/08/03 02:42:02;;;;;;;4.03;1.50;;;16.50;99.90;;;;;;5076641;28;20033;-60
2023/08/03 02:44:28;;;;;;;4.50;1.65;;;16.40;99.90;;;;;;5076903;28;20040;-61
2023/08/03 02:46:53;;;;;;;3.78;1.40;;;16.60;99.90;;;;;;5077751;28;20549;-59
2023/08/03 02:49:19;;;;;;;4.32;1.60;;;16.50;99.90;;;;;;5075582;28;20125;-60
2023/08/03 02:51:45;;;;;;;7.57;1.80;;;16.50;99.90;;;;;;5077827;28;20041;-60
2023/08/03 02:54:10;;;;;;;6.50;1.70;;;16.50;99.90;;;;;;5075761;28;20475;-60
2023/08/03 02:56:36;;;;;;;6.88;1.98;;;16.50;99.90;;;;;;5084641;28;20047;-60
2023/08/03 02:59:01;;;;;;;5.95;2.05;;;16.50;99.90;;;;;;5096543;28;20044;-60
2023/08/03 03:01:27;;;;;;;4.80;1.65;;;16.40;99.90;;;;;;5096891;28;20048;-60
2023/08/03 03:03:53;;;;;;;4.68;1.90;;;16.50;99.90;;;;;;5097622;28;20095;-60
2023/08/03 03:06:18;;;;;;;4.60;1.90;;;16.50;99.90;;;;;;5077888;28;20055;-60
2023/08/03 03:08:44;;;;;;;5.30;2.00;;;16.50;99.90;;;;;;5097788;28;20055;-60
2023/08/03 03:11:10;;;;;;;5.85;1.75;;;16.50;99.90;;;;;;5095796;28;20094;-60
2023/08/03 03:13:35;;;;;;;7.85;2.38;;;16.40;99.90;;;;;;5097736;28;20040;-60
2023/08/03 03:16:01;;;;;;;7.25;2.17;;;16.40;99.90;;;;;;5096406;28;20047;-60
2023/08/03 03:18:26;;;;;;;5.18;2.30;;;16.50;99.90;;;;;;5096776;28;20121;-60
2023/08/03 03:20:52;;;;;;;5.43;2.20;;;16.30;99.90;;;;;;5097304;28;20075;-59
2023/08/03 03:23:18;;;;;;;5.35;2.17;;;16.40;99.90;;;;;;5095666;28;20055;-59
2023/08/03 03:25:43;;;;;;;7.05;2.40;;;16.30;99.90;;;;;;5097913;28;20044;-60
2023/08/03 03:28:09;;;;;;;6.20;2.40;;;16.30;99.90;;;;;;5095326;28;20036;-60
2023/08/03 03:30:34;;;;;;;4.88;2.30;;;16.20;99.90;;;;;;5097633;28;20047;-65
2023/08/03 03:33:00;;;;;;;5.80;2.85;;;16.40;99.90;;;;;;5095474;28;20062;-67
2023/08/03 03:35:26;;;;;;;6.60;2.90;;;16.40;99.90;;;;;;5097020;28;20052;-67
2023/08/03 03:37:52;;;;;;;6.93;2.60;;;16.40;99.90;;;;;;5096899;28;20068;-67
2023/08/03 03:40:17;;;;;;;6.75;3.10;;;16.40;99.90;;;;;;5077770;28;20048;-66
2023/08/03 03:42:43;;;;;;;5.95;3.30;;;16.40;99.90;;;;;;5097528;28;20048;-66
2023/08/03 03:45:09;;;;;;;6.88;2.95;;;16.30;99.90;;;;;;5095462;28;20109;-64
2023/08/03 03:47:34;;;;;;;7.70;3.15;;;16.30;99.90;;;;;;5097441;28;20105;-64
2023/08/03 03:50:00;;;;;;;8.10;3.20;;;16.40;99.90;;;;;;5094976;28;20512;-63
2023/08/03 03:52:26;;;;;;;6.20;3.03;;;16.30;99.90;;;;;;5100471;28;20074;-62
2023/08/03 03:54:51;;;;;;;6.55;3.20;;;16.30;99.90;;;;;;5100034;28;20036;-61
2023/08/03 03:57:17;;;;;;;8.23;3.60;;;16.20;99.90;;;;;;5086942;28;20032;-61
2023/08/03 03:59:42;;;;;;;7.43;3.30;;;16.20;99.90;;;;;;5080593;28;20052;-61
2023/08/03 04:02:08;;;;;;;5.90;3.40;;;16.10;99.90;;;;;;5060763;28;20096;-61
2023/08/03 04:04:34;;;;;;;7.18;4.03;;;16.20;99.90;;;;;;5080897;28;20044;-61
2023/08/03 04:07:00;;;;;;;7.45;3.90;;;16.20;99.90;;;;;;5078496;28;20044;-60
2023/08/03 04:09:25;;;;;;;7.07;3.80;;;16.30;99.90;;;;;;5080340;28;20044;-60
2023/08/03 04:11:51;;;;;;;6.68;3.42;;;16.30;99.90;;;;;;5079074;28;20051;-60
2023/08/03 04:14:17;;;;;;;8.32;4.03;;;16.30;99.90;;;;;;5079588;28;20086;-60
2023/08/03 04:16:42;;;;;;;7.05;3.80;;;16.40;99.90;;;;;;5080224;28;20041;-60
2023/08/03 04:19:08;;;;;;;7.95;3.92;;;16.30;99.90;;;;;;5078045;28;20052;-60
2023/08/03 04:21:34;;;;;;;8.02;3.90;;;16.30;99.90;;;;;;5080800;28;20044;-60
2023/08/03 04:23:59;;;;;;;7.70;4.22;;;16.20;99.90;;;;;;5043493;28;20271;-59
2023/08/03 04:26:25;;;;;;;6.95;4.10;;;16.30;99.90;;;;;;5080250;28;20059;-60
2023/08/03 04:28:50;;;;;;;9.98;4.60;;;16.20;99.90;;;;;;5078616;28;20097;-60
2023/08/03 04:31:16;;;;;;;10.32;4.60;;;16.20;99.90;;;;;;5079720;28;20044;-59
2023/08/03 04:33:42;;;;;;;10.35;4.75;;;16.30;99.90;;;;;;5079873;28;20078;-59
2023/08/03 04:36:08;;;;;;;8.55;4.63;;;16.20;99.90;;;;;;5078525;28;20053;-59
2023/08/03 04:38:33;;;;;;;8.48;4.45;;;16.20;99.90;;;;;;5080508;28;20139;-60
2023/08/03 04:41:01;;;;;;;9.02;4.50;;;16.30;99.90;;;;;;5059484;28;20456;-60
2023/08/03 04:43:27;;;;;;;8.13;5.03;;;16.30;99.90;;;;;;5079922;28;20044;-60
2023/08/03 04:45:53;;;;;;;9.73;4.75;;;16.20;99.90;;;;;;5078160;28;20127;-60
2023/08/03 04:48:19;;;;;;;8.55;4.85;;;16.20;99.90;;;;;;5079304;28;20036;-60
2023/08/03 04:50:45;;;;;;;9.27;4.47;;;16.30;99.90;;;;;;5078988;28;20040;-59
2023/08/03 04:53:10;;;;;;;8.93;5.00;;;16.10;99.90;;;;;;5078194;28;20440;-59
2023/08/03 04:55:36;;;;;;;10.02;4.68;;;16.20;99.90;;;;;;5080058;28;20104;-59
2023/08/03 04:58:02;;;;;;;8.23;5.03;;;16.20;99.90;;;;;;5096800;28;20040;-59
2023/08/03 05:00:28;;;;;;;10.65;5.90;;;16.20;99.90;;;;;;5099742;28;20056;-60
2023/08/03 05:02:54;;;;;;;10.43;5.75;;;16.20;99.90;;;;;;5097040;28;20075;-60
2023/08/03 05:05:19;;;;;;;11.73;5.78;;;16.30;99.90;;;;;;5099537;28;20134;-60
2023/08/03 05:07:45;;;;;;;10.25;6.35;;;16.00;99.90;;;;;;5098987;28;20032;-59
2023/08/03 05:10:11;;;;;;;9.82;5.40;;;16.00;99.90;;;;;;5098470;28;20048;-59
2023/08/03 05:12:39;;;;;;;8.90;5.20;;;16.20;99.90;;;;;;5099932;28;20429;-59
2023/08/03 05:15:05;;;;;;;10.65;5.72;;;16.10;99.90;;;;;;5097161;28;20099;-59
2023/08/03 05:17:31;;;;;;;9.25;5.82;;;16.00;99.90;;;;;;5099555;28;20036;-59
2023/08/03 05:19:56;;;;;;;10.63;6.05;;;16.20;99.90;;;;;;5097360;28;20117;-58
2023/08/03 05:22:22;;;;;;;9.50;5.78;;;16.10;99.90;;;;;;5099148;28;20044;-58
2023/08/03 05:24:48;;;;;;;9.73;5.85;;;15.90;99.90;;;;;;5098453;28;20067;-58
2023/08/03 05:27:14;;;;;;;10.05;6.07;;;16.00;99.90;;;;;;5098158;28;20406;-58
2023/08/03 05:29:43;;;;;;;8.57;5.70;;;16.00;99.90;;;;;;5099354;28;20040;-58
2023/08/03 05:32:09;;;;;;;9.52;6.03;;;16.00;99.90;;;;;;5095591;28;20091;-58
2023/08/03 05:34:34;;;;;;;9.23;5.75;;;16.00;99.90;;;;;;5095454;28;20078;-58
2023/08/03 05:37:00;;;;;;;10.50;6.00;;;16.00;99.90;;;;;;5093161;28;20044;-57
2023/08/03 05:39:26;;;;;;;11.75;6.13;;;16.10;99.90;;;;;;5095074;28;20055;-59
2023/08/03 05:41:52;;;;;;;9.57;5.43;;;16.10;99.90;;;;;;5093164;28;20161;-59
2023/08/03 05:44:18;;;;;;;7.75;5.00;;;16.10;99.90;;;;;;5082718;28;20159;-60
2023/08/03 05:46:44;;;;;;;8.55;4.78;;;16.10;99.90;;;;;;5078839;28;20122;-60
2023/08/03 05:49:11;;;;;;;8.32;5.28;;;16.20;99.90;;;;;;5054475;28;20099;-60
2023/08/03 05:51:39;;;;;;;9.55;5.10;;;16.10;99.90;;;;;;5077954;28;20045;-60
2023/08/03 05:54:05;;;;;;;8.73;4.90;;;16.20;99.90;;;;;;5076323;28;20492;-60
2023/08/03 05:56:33;;;;;;;8.35;4.35;;;16.20;99.90;;;;;;5084427;28;20040;-60
2023/08/03 05:59:00;;;;;;;7.22;4.72;;;16.10;99.90;;;;;;5097662;28;20036;-60
2023/08/03 06:01:26;;;;;;;8.77;4.60;;;16.10;99.90;;;;;;5098141;28;20051;-61
2023/08/03 06:03:53;;;;;;;7.30;4.75;;;16.20;99.90;;;;;;5098902;28;20079;-60
2023/08/03 06:06:20;;;;;;;9.90;4.90;;;16.10;99.90;;;;;;5096723;28;20495;-60
2023/08/03 06:08:57;;;;;;;9.07;5.13;;;16.20;99.90;;;;;;5099279;28;20036;-60
2023/08/03 06:11:23;;;;;;;8.63;5.20;;;15.90;99.90;;;;;;5078395;28;20071;-60
2023/08/03 06:13:49;;;;;;;9.40;5.45;;;16.10;99.90;;;;;;5098155;28;20047;-60
2023/08/03 06:16:15;;;;;;;8.40;5.30;;;16.20;99.90;;;;;;5097394;28;20047;-60
2023/08/03 06:18:55;;;;;;;7.38;4.97;;;16.30;99.90;;;;;;5097265;28;20036;-60
2023/08/03 06:21:23;;;;;;;7.72;4.82;;;16.40;99.90;;;;;;5099343;28;20085;-59
2023/08/03 06:23:51;;;;;;;8.10;5.40;;;16.40;99.90;;;;;;5096641;28;20052;-60
2023/08/03 06:26:19;;;;;;;7.68;5.00;;;16.60;99.90;;;;;;5099197;28;20071;-60
2023/08/03 06:28:46;;;;;;;8.63;5.20;;;16.60;99.90;;;;;;5097433;28;20052;-59
2023/08/03 06:31:33;;;;;;;8.40;5.15;;;16.30;99.90;;;;;;5098451;28;20036;-60
2023/08/03 06:33:59;;;;;;;8.55;4.90;;;16.30;99.90;;;;;;5095803;28;20056;-60
2023/08/03 06:36:26;;;;;;;7.97;4.70;;;16.50;99.90;;;;;;5092713;28;20486;-59
2023/08/03 06:38:51;;;;;;;6.97;4.15;;;16.50;99.90;;;;;;5095490;28;20071;-60
2023/08/03 06:41:17;;;;;;;10.45;4.35;;;16.50;99.90;;;;;;5093159;28;20054;-58
2023/08/03 06:43:44;;;;;;;8.52;4.40;;;16.60;99.90;;;;;;5094949;28;20044;-58
2023/08/03 06:46:10;;;;;;;7.63;4.80;;;16.70;99.90;;;;;;5093140;28;20047;-58
2023/08/03 06:48:36;;;;;;;6.75;4.47;;;16.60;99.90;;;;;;5093660;28;20044;-58
2023/08/03 06:51:03;;;;;;;9.95;4.43;;;16.80;99.90;;;;;;5094957;28;20472;-57
2023/08/03 06:53:33;;;;;;;7.75;4.30;;;17.10;99.90;;;;;;5074985;28;20040;-58
2023/08/03 06:55:58;;;;;;;7.90;4.25;;;17.00;99.90;;;;;;5094913;28;20040;-58
2023/08/03 06:58:24;;;;;;;7.93;3.85;;;17.10;99.90;;;;;;5092469;28;20078;-57
2023/08/03 07:00:50;;;;;;;9.02;3.90;;;17.10;99.90;;;;;;5094490;28;20044;-58
2023/08/03 07:03:16;;;;;;;8.32;3.83;;;17.10;99.90;;;;;;5093563;28;20032;-57
2023/08/03 07:05:42;;;;;;;7.15;3.00;;;17.30;99.90;;;;;;5093949;28;20071;-58
2023/08/03 07:08:08;;;;;;;4.97;2.10;;;17.20;99.90;;;;;;5094585;28;20044;-57
2023/08/03 07:10:35;;;;;;;7.68;2.50;;;17.30;99.90;;;;;;5092316;28;20522;-57
2023/08/03 07:13:01;;;;;;;5.60;1.98;;;17.20;99.90;;;;;;5094796;28;20036;-57
2023/08/03 07:15:27;;;;;;;5.03;1.80;;;17.30;99.90;;;;;;5092874;28;20087;-58
2023/08/03 07:17:53;;;;;;;6.55;1.70;;;17.40;99.90;;;;;;5094264;28;20047;-58
2023/08/03 07:20:18;;;;;;;6.45;1.75;;;17.50;99.90;;;;;;5093192;28;20113;-58
2023/08/03 07:22:48;;;;;;;5.25;1.77;;;17.80;99.90;;;;;;5092675;28;20040;-57
2023/08/03 07:25:14;;;;;;;3.83;1.50;;;17.90;99.90;;;;;;5079957;28;20032;-58
2023/08/03 07:27:41;;;;;;;5.18;1.35;;;17.90;99.90;;;;;;5076406;28;20059;-58
2023/08/03 07:30:07;;;;;;;4.80;1.50;;;18.00;99.90;;;;;;5078608;28;20045;-58
2023/08/03 07:32:35;;;;;;;4.53;1.42;;;18.00;99.90;;;;;;5058015;28;20503;-58
2023/08/03 07:35:00;;;;;;;5.65;1.45;;;18.10;99.90;;;;;;5077629;28;20044;-59
2023/08/03 07:37:26;;;;;;;4.63;1.40;;;18.20;99.90;;;;;;5076519;28;20562;-57
2023/08/03 07:39:52;;;;;;;4.75;1.40;;;18.30;99.90;;;;;;5077704;28;20051;-57
2023/08/03 07:42:18;;;;;;;6.13;1.50;;;18.20;99.90;;;;;;5077643;28;20040;-58
2023/08/03 07:44:43;;;;;;;6.43;1.98;;;18.40;99.90;;;;;;5076118;28;20048;-59
2023/08/03 07:47:09;;;;;;;5.38;1.38;;;18.40;99.90;;;;;;5059259;28;20060;-59
2023/08/03 07:49:35;;;;;;;5.93;1.58;;;18.50;99.90;;;;;;5075817;28;20132;-59
2023/08/03 07:52:00;;;;;;;6.75;1.45;;;18.40;99.90;;;;;;5077948;28;20554;-59
2023/08/03 07:54:26;;;;;;;4.70;1.27;;;18.40;99.90;;;;;;5075787;28;20052;-59
2023/08/03 07:56:52;;;;;;;4.82;1.55;;;18.40;99.90;;;;;;5086410;28;20086;-59
2023/08/03 07:59:17;;;;;;;3.42;1.48;;;18.20;99.90;;;;;;5097157;28;20044;-59
2023/08/03 08:01:45;;;;;;;6.32;1.10;;;18.00;99.90;;;;;;5096430;28;20046;-59
2023/08/03 08:04:11;;;;;;;3.88;1.20;;;17.80;99.90;;;;;;5079961;28;20051;-59
2023/08/03 08:06:37;;;;;;;5.07;1.27;;;18.00;99.90;;;;;;5095107;28;20101;-59
2023/08/03 08:09:02;;;;;;;3.78;1.33;;;18.30;99.90;;;;;;5097875;28;20069;-59
2023/08/03 08:11:28;;;;;;;4.13;1.30;;;18.50;99.90;;;;;;5095282;28;20444;-59
2023/08/03 08:13:57;;;;;;;7.78;1.40;;;18.60;99.90;;;;;;5097501;28;20123;-59
2023/08/03 08:16:23;;;;;;;3.78;1.25;;;18.80;99.90;;;;;;5096363;28;20052;-58
2023/08/03 08:18:49;;;;;;;6.50;1.60;;;19.10;99.90;;;;;;5095444;28;20097;-57
2023/08/03 08:21:15;;;;;;;5.97;1.75;;;19.00;99.90;;;;;;5096614;28;20084;-57
2023/08/03 08:23:41;;;;;;;3.95;1.10;;;18.80;99.90;;;;;;5094812;28;20047;-58
2023/08/03 08:26:15;;;;;;;8.65;1.48;;;18.60;99.90;;;;;;5097474;28;20554;-58
2023/08/03 08:28:42;;;;;;;4.38;1.15;;;18.90;99.90;;;;;;5095623;28;20047;-58
2023/08/03 08:31:09;;;;;;;6.13;1.52;;;19.20;99.90;;;;;;5096498;28;20048;-57
2023/08/03 08:33:36;;;;;;;5.63;1.70;;;19.10;99.90;;;;;;5096163;28;20083;-57
2023/08/03 08:36:01;;;;;;;7.68;1.35;;;18.90;99.90;;;;;;5095497;28;20071;-57
2023/08/03 08:38:27;;;;;;;9.15;1.75;;;19.00;99.90;;;;;;5097166;28;20047;-57
2023/08/03 08:40:53;;;;;;;7.20;1.90;;;19.50;99.90;;;;;;5094881;28;20048;-58
2023/08/03 08:43:19;;;;;;;8.80;2.10;;;19.30;99.90;;;;;;5096660;28;20040;-58
2023/08/03 08:45:45;;;;;;;8.75;2.38;;;19.20;99.90;;;;;;5094922;28;20502;-57
2023/08/03 08:48:11;;;;;;;6.97;1.70;;;18.90;99.90;;;;;;5096628;28;20109;-58
2023/08/03 08:50:36;;;;;;;8.73;1.90;;;18.80;99.90;;;;;;5096641;28;20078;-57
2023/08/03 08:53:02;;;;;;;6.63;1.98;;;18.70;99.90;;;;;;5093075;28;20052;-58
2023/08/03 08:55:30;;;;;;;8.82;2.20;;;18.80;99.90;;;;;;5084639;28;20040;-57
2023/08/03 08:57:57;;;;;;;9.98;2.40;;;19.00;99.90;;;;;;5077852;28;20051;-58
2023/08/03 09:00:25;;;;;;;6.65;1.90;;;19.30;99.90;;;;;;5100192;28;20033;-58
2023/08/03 09:03:00;;;;;;;11.45;2.45;;;19.50;99.90;;;;;;5098209;28;20077;-57
2023/08/03 09:05:26;;;;;;;6.45;1.70;;;19.60;99.90;;;;;;5082732;28;20044;-58
2023/08/03 09:08:00;;;;;;;10.07;2.50;;;19.70;99.90;;;;;;5099032;28;20101;-57
2023/08/03 09:10:26;;;;;;;9.52;2.25;;;19.30;99.90;;;;;;5098033;28;20097;-58
2023/08/03 09:12:52;;;;;;;6.80;2.00;;;19.10;99.90;;;;;;5082382;28;20040;-58
2023/08/03 09:15:18;;;;;;;8.75;2.03;;;19.00;99.90;;;;;;5079932;28;20043;-58
2023/08/03 09:17:47;;;;;;;6.78;2.30;;;19.30;99.90;;;;;;5081310;28;20036;-58
2023/08/03 09:20:28;;;;;;;8.48;2.00;;;19.30;99.90;;;;;;5098057;28;20077;-58
2023/08/03 09:22:53;;;;;;;10.02;2.50;;;19.30;99.90;;;;;;5098539;28;20047;-57
2023/08/03 09:25:19;;;;;;;9.30;2.20;;;19.60;99.90;;;;;;5099781;28;20048;-57
2023/08/03 09:27:51;;;;;;;7.22;2.28;;;19.60;99.90;;;;;;5097774;28;20036;-58
2023/08/03 09:30:16;;;;;;;9.27;2.53;;;19.90;99.90;;;;;;5099743;28;20048;-58
2023/08/03 09:32:43;;;;;;;9.00;2.05;;;19.80;99.90;;;;;;5098076;28;20124;-57
2023/08/03 09:35:25;;;;;;;8.73;2.20;;;19.90;99.90;;;;;;5099723;28;20052;-58
2023/08/03 09:37:55;;;;;;;8.93;2.17;;;20.10;99.90;;;;;;5081004;28;20187;-57
2023/08/03 09:40:23;;;;;;;10.20;1.98;;;20.20;99.90;;;;;;5097653;28;20055;-57
2023/08/03 09:42:49;;;;;;;8.98;2.00;;;20.70;99.90;;;;;;5099716;28;20033;-58
2023/08/03 09:45:15;;;;;;;6.75;2.22;;;20.30;99.90;;;;;;5096957;28;20048;-57
2023/08/03 09:47:41;;;;;;;8.45;2.00;;;19.80;99.90;;;;;;5098751;28;20172;-58
2023/08/03 09:50:08;;;;;;;6.25;1.90;;;20.10;99.90;;;;;;5078941;28;20047;-58
2023/08/03 09:52:54;;;;;;;7.13;1.73;;;20.40;99.90;;;;;;5099053;28;20462;-58
2023/08/03 09:55:33;;;;;;;10.50;1.67;;;20.50;99.90;;;;;;5099574;28;20075;-58
2023/08/03 09:58:03;;;;;;;8.35;2.20;;;21.00;99.90;;;;;;5078290;28;20044;-58
2023/08/03 10:00:29;;;;;;;7.88;2.03;;;21.30;99.90;;;;;;5078560;28;20049;-57
2023/08/03 10:03:15;;;;;;;7.93;2.00;;;21.00;99.90;;;;;;5077674;28;20051;-57
2023/08/03 10:05:55;;;;;;;9.07;2.15;;;20.50;99.90;;;;;;5077905;28;20483;-58
2023/08/03 10:08:43;;;;;;;10.30;2.67;;;19.90;99.90;;;;;;5079169;28;20037;-56
2023/08/03 10:11:12;;;;;;;7.53;2.40;;;19.50;99.90;;;;;;5076850;28;20040;-57
2023/08/03 10:13:44;;;;;;;7.80;2.58;;;19.30;99.90;;;;;;5078586;28;20108;-58
2023/08/03 10:16:10;;;;;;;7.28;2.20;;;19.20;99.90;;;;;;5077972;28;20086;-57
2023/08/03 10:18:37;;;;;;;9.88;2.88;;;19.30;99.90;;;;;;5077616;28;20045;-57
2023/08/03 10:21:03;;;;;;;7.32;2.38;;;19.20;99.90;;;;;;5078753;28;20480;-57
2023/08/03 10:23:29;;;;;;;7.18;2.15;;;19.30;99.90;;;;;;5076660;28;20119;-57
2023/08/03 10:25:58;;;;;;;8.20;2.13;;;19.60;99.90;;;;;;5078506;28;20072;-55
2023/08/03 10:28:27;;;;;;;8.77;2.30;;;19.50;99.90;;;;;;5076814;28;20033;-58
2023/08/03 10:31:11;;;;;;;9.50;1.75;;;19.70;99.90;;;;;;5078417;28;20036;-57
2023/08/03 10:33:49;;;;;;;7.15;2.17;;;20.00;99.90;;;;;;5078141;28;20055;-58
2023/08/03 10:36:35;;;;;;;8.57;1.50;;;19.90;99.90;;;;;;5057989;28;20063;-58
2023/08/03 10:39:03;;;;;;;6.70;1.48;;;19.90;99.90;;;;;;5078381;28;20056;-57
2023/08/03 10:41:37;;;;;;;6.32;1.27;;;19.90;99.90;;;;;;5076622;28;20052;-57
2023/08/03 10:44:06;;;;;;;9.23;1.33;;;19.70;99.90;;;;;;5077777;28;20119;-57
2023/08/03 10:46:33;;;;;;;6.95;1.23;;;19.90;99.90;;;;;;5078036;28;20686;-58
2023/08/03 10:48:59;;;;;;;3.90;1.08;;;19.80;99.90;;;;;;5075571;28;20037;-58
2023/08/03 10:51:24;;;;;;;3.90;1.63;;;19.70;99.90;;;;;;5078604;28;20101;-57
2023/08/03 10:53:50;;;;;;;6.72;1.38;;;19.90;99.90;;;;;;5076442;28;20051;-57
2023/08/03 10:56:16;;;;;;;3.70;1.20;;;19.80;99.90;;;;;;5086450;28;20028;-57
2023/08/03 10:58:50;;;;;;;7.07;1.48;;;19.90;99.90;;;;;;5085992;28;20040;-58
2023/08/03 11:01:23;;;;;;;6.30;1.17;;;20.50;99.90;;;;;;5086342;28;20063;-58
2023/08/03 11:03:49;;;;;;;5.40;1.20;;;20.20;99.90;;;;;;5090980;28;20151;-58
2023/08/03 11:06:17;;;;;;;5.32;1.20;;;20.50;99.90;;;;;;5089202;28;20051;-58
2023/08/03 11:08:47;;;;;;;5.55;1.20;;;20.30;99.90;;;;;;5073579;28;20047;-58
2023/08/03 11:11:14;;;;;;;5.75;1.02;;;20.20;99.90;;;;;;5095561;28;20044;-58
2023/08/03 11:13:44;;;;;;;5.88;1.33;;;20.10;99.90;;;;;;5102535;28;20040;-58
2023/08/03 11:16:18;;;;;;;7.03;1.10;;;20.10;99.90;;;;;;5101676;28;20040;-57
2023/08/03 11:18:48;;;;;;;4.50;0.90;;;20.20;99.90;;;;;;5100776;28;20055;-58
2023/08/03 11:21:14;;;;;;;4.82;1.10;;;20.10;99.90;;;;;;5101007;28;20044;-59
2023/08/03 11:23:40;;;;;;;6.15;1.10;;;20.30;99.90;;;;;;5099064;28;20036;-58
2023/08/03 11:26:09;;;;;;;6.47;1.20;;;20.30;99.90;;;;;;5101902;28;20040;-59
2023/08/03 11:28:42;;;;;;;5.18;1.10;;;20.50;99.90;;;;;;5100881;28;20036;-59
2023/08/03 11:31:19;;;;;;;4.57;1.17;;;20.50;99.90;;;;;;5101536;28;20067;-58
2023/08/03 11:33:52;;;;;;;5.95;1.13;;;20.50;99.90;;;;;;5102303;28;20113;-58
2023/08/03 11:36:18;;;;;;;5.95;1.25;;;20.60;99.90;;;;;;5099719;28;20059;-58
2023/08/03 11:38:44;;;;;;;2.80;1.00;;;20.80;99.90;;;;;;5102373;28;20051;-58
2023/08/03 11:41:15;;;;;;;6.40;1.75;;;20.90;99.90;;;;;;5100135;28;20036;-59
2023/08/03 11:43:41;;;;;;;3.30;1.00;;;20.90;99.90;;;;;;5101973;28;20032;-58
2023/08/03 11:46:07;;;;;;;3.97;1.33;;;20.30;99.90;;;;;;5101025;28;20048;-58
2023/08/03 11:48:33;;;;;;;6.15;1.30;;;20.20;99.90;;;;;;5100579;28;20056;-58
2023/08/03 11:50:59;;;;;;;8.20;1.65;;;20.40;99.90;;;;;;5101637;28;20107;-58
2023/08/03 11:53:31;;;;;;;9.40;2.38;;;20.70;99.90;;;;;;5100105;28;20039;-58
2023/08/03 11:56:00;;;;;;;6.60;1.60;;;20.70;99.90;;;;;;5099928;28;20058;-58
2023/08/03 11:58:27;;;;;;;6.60;1.80;;;20.90;99.90;;;;;;5078899;28;20098;-59
2023/08/03 12:01:01;;;;;;;5.53;1.52;;;20.70;99.90;;;;;;5081080;28;20051;-58
2023/08/03 12:03:35;;;;;;;6.70;1.60;;;20.60;99.90;;;;;;5080508;28;20064;-58
2023/08/03 12:06:08;;;;;;;5.07;1.55;;;20.30;99.90;;;;;;5079060;28;20084;-58
2023/08/03 12:09:00;;;;;;;6.30;1.65;;;20.00;99.90;;;;;;5081357;28;20104;-58
2023/08/03 12:11:28;;;;;;;11.35;1.70;;;19.40;99.90;;;;;;5075115;28;20048;-58
2023/08/03 12:13:54;;;;;;;10.02;1.98;;;19.30;99.90;;;;;;5080304;28;20052;-59
2023/08/03 12:16:20;;;;;;;8.23;1.50;;;19.00;99.90;;;;;;5080436;28;20055;-61
2023/08/03 12:18:45;;;;;;;9.23;1.70;;;18.80;99.90;;;;;;5079307;28;20067;-61
2023/08/03 12:21:11;;;;;;;7.57;1.60;;;18.70;99.90;;;;;;5081374;28;20151;-60
2023/08/03 12:23:36;;;;;;;7.75;1.40;;;18.70;99.90;;;;;;5078435;28;20036;-59
2023/08/03 12:26:02;;;;;;;9.60;2.33;;;18.70;99.90;;;;;;5081041;28;20028;-59
2023/08/03 12:28:28;;;;;;;7.60;1.85;;;18.90;99.90;;;;;;5078963;28;20100;-59
2023/08/03 12:30:53;;;;;;;8.23;1.88;;;19.00;99.90;;;;;;5080525;28;20040;-59
2023/08/03 12:33:19;;;;;;;9.98;1.75;;;19.00;99.90;;;;;;5080083;28;20462;-59
2023/08/03 12:35:45;;;;;;;6.93;1.48;;;19.00;99.90;;;;;;5079426;28;20093;-61
2023/08/03 12:38:11;;;;;;;6.68;1.40;;;19.10;99.90;;;;;;5080349;28;20057;-59
2023/08/03 12:40:36;;;;;;;6.10;1.70;;;19.30;99.90;;;;;;5078401;28;20089;-58
2023/08/03 12:43:02;;;;;;;11.82;2.78;;;19.30;99.90;;;;;;5080739;28;20040;-59
2023/08/03 12:45:28;;;;;;;9.88;1.92;;;19.50;99.90;;;;;;5078604;28;20047;-59